Current Weather

Andersen Afb

Yigo, Guam (PGUA)

Report from: Sunday, November 27, 2022 5:55 PM ChST
Current time: Sunday, November 27, 2022 6:53 PM ChST

Nearby weather
Weather history
Weather forecast

Temperature26.0°C (78.8°F)
Dew point23.0°C (73.4°F)
Winds 10 kts (5.1 m/s, 11.5 mph) East (90°)
Visibility10 mi. (16.1 km)
Clouds Scattered clouds 5,000 ft. (1,524 m)
Scattered clouds 6,500 ft. (1,981 m)
Altimeter29.87 in.Hg (1012 mB)
Relative humidity84 %
Density altitude1,707 ft. (520 m)
Remarks Fully automated report
Flight conditions Visual Meteorological Conditions
Raw dataPGUA 270755Z AUTO 09010KT 10SM SCT050 SCT065 26/23 A2987
An error has occurred. This application may no longer respond until reloaded. Reload 🗙